Time;durP1;ratioP1;P1;durP2;ratioP2;P2;SDS_P1;SDS_P2;PMS_P1;PMS_P2;Temp;Humidity;BMP_temperature;BMP_pressure;BME280_temperature;BME280_humidity;BME280_pressure;Samples;Min_cycle;Max_cycle;Signal;HPM_P1;HPM_P2
2022/12/09 00:01:29;;;;;;;68.97;18.50;;;;;;;-1.11;100.00;147165.03;5042057;28;20481;-60
2022/12/09 00:03:55;;;;;;;66.53;18.57;;;;;;;-1.09;100.00;147170.16;5031845;28;20052;-61
2022/12/09 00:06:26;;;;;;;71.20;19.07;;;;;;;-1.12;100.00;147162.47;5027679;28;20045;-62
2022/12/09 00:08:52;;;;;;;74.40;20.00;;;;;;;-1.15;100.00;147154.81;5026582;28;20481;-61
2022/12/09 00:11:19;;;;;;;76.17;19.43;;;;;;;-1.23;100.00;147135.56;5034711;28;20518;-61
2022/12/09 00:13:51;;;;;;;76.00;18.70;;;;;;;-1.33;100.00;147109.94;5034130;28;20435;-61
2022/12/09 00:16:18;;;;;;;96.33;20.53;;;;;;;-1.45;100.00;147079.19;5032772;28;20493;-61
2022/12/09 00:18:43;;;;;;;81.73;19.30;;;;;;;-1.54;100.00;147057.44;5033607;28;20057;-61
2022/12/09 00:21:31;;;;;;;91.73;19.80;;;;;;;-1.68;100.00;147022.84;5020259;28;20450;-61
2022/12/09 00:23:58;;;;;;;75.87;18.23;;;;;;;-1.80;100.00;146993.38;5017246;28;20049;-61
2022/12/09 00:26:25;;;;;;;88.13;20.37;;;;;;;-1.76;100.00;147002.34;5016914;28;20036;-61
2022/12/09 00:28:51;;;;;;;86.30;19.80;;;;;;;-2.01;100.00;146939.59;5022138;28;20379;-61
2022/12/09 00:31:23;;;;;;;95.83;19.47;;;;;;;-1.84;100.00;146981.84;5018880;28;20830;-61
2022/12/09 00:33:49;;;;;;;88.32;19.27;;;;;;;-1.55;100.00;147056.16;5020396;28;20636;-60
2022/12/09 00:36:18;;;;;;;93.37;20.13;;;;;;;-1.70;100.00;147016.41;5022912;28;20033;-61
2022/12/09 00:38:44;;;;;;;98.27;21.00;;;;;;;-1.82;100.00;146986.94;5023355;28;20386;-60
2022/12/09 00:41:10;;;;;;;81.07;18.83;;;;;;;-1.84;100.00;146981.84;5023716;28;20305;-62
2022/12/09 00:43:36;;;;;;;90.60;18.43;;;;;;;-2.00;100.00;146942.16;5021580;28;20512;-62
2022/12/09 00:46:01;;;;;;;90.97;19.63;;;;;;;-2.13;100.00;146908.88;5029108;28;20283;-61
2022/12/09 00:48:27;;;;;;;103.43;19.20;;;;;;;-2.07;100.00;146924.22;5029505;28;20100;-60
2022/12/09 00:50:52;;;;;;;93.47;18.60;;;;;;;-2.10;100.00;146916.53;5030326;28;20481;-61
2022/12/09 00:53:21;;;;;;;87.53;18.80;;;;;;;-2.11;100.00;146913.97;5031648;28;20029;-62
2022/12/09 00:55:47;;;;;;;98.47;19.93;;;;;;;-1.85;100.00;146980.56;5030170;28;20033;-60
2022/12/09 00:58:13;;;;;;;111.23;20.97;;;;;;;-1.56;100.00;147053.59;5033265;28;20276;-61
2022/12/09 01:00:39;;;;;;;118.47;21.87;;;;;;;-1.37;100.00;147100.97;5031544;28;20341;-61
2022/12/09 01:03:04;;;;;;;105.90;21.80;;;;;;;-1.15;100.00;147154.81;5031843;28;20096;-61
2022/12/09 01:05:29;;;;;;;111.00;21.83;;;;;;;-1.01;100.00;147190.69;5029655;28;20481;-61
2022/12/09 01:07:55;;;;;;;106.87;21.00;;;;;;;-0.93;100.00;147211.22;5030920;28;20068;-62
2022/12/09 01:10:20;;;;;;;121.53;23.37;;;;;;;-0.80;100.00;147244.53;5032392;28;20038;-61
2022/12/09 01:12:46;;;;;;;107.53;21.50;;;;;;;-0.71;100.00;147267.63;5032175;28;20033;-61
2022/12/09 01:15:11;;;;;;;112.20;21.73;;;;;;;-0.64;100.00;147285.53;5032017;28;20076;-61
2022/12/09 01:17:37;;;;;;;87.53;20.83;;;;;;;-0.65;100.00;147281.69;5031697;28;20083;-60
2022/12/09 01:20:04;;;;;;;94.87;22.20;;;;;;;-0.54;100.00;147309.91;5032314;28;20535;-61
2022/12/09 01:22:30;;;;;;;87.17;20.43;;;;;;;-0.60;100.00;147294.56;5030788;28;20056;-61
2022/12/09 01:24:55;;;;;;;85.93;19.10;;;;;;;-0.66;100.00;147279.16;5032016;28;20034;-61
2022/12/09 01:27:21;;;;;;;80.47;18.83;;;;;;;-0.56;100.00;147303.50;5032339;28;20036;-61
2022/12/09 01:29:46;;;;;;;76.63;19.20;;;;;;;-0.55;100.00;147306.06;5033151;28;20049;-61
2022/12/09 01:32:11;;;;;;;73.23;18.30;;;;;;;-0.49;100.00;147321.44;5031818;28;20080;-61
2022/12/09 01:34:37;;;;;;;75.80;20.30;;;;;;;-0.42;100.00;147339.41;5031630;28;20384;-61
2022/12/09 01:37:02;;;;;;;76.63;19.17;;;;;;;-0.40;100.00;147344.53;5031403;28;20029;-61
2022/12/09 01:39:27;;;;;;;79.33;19.77;;;;;;;-0.39;100.00;147348.38;5028154;28;20072;-61
2022/12/09 01:41:53;;;;;;;72.60;20.03;;;;;;;-0.36;100.00;147356.09;5030283;28;20474;-61
2022/12/09 01:44:26;;;;;;;78.03;20.70;;;;;;;-0.29;100.00;147372.75;5030827;28;20465;-62
2022/12/09 01:46:56;;;;;;;73.10;19.00;;;;;;;-0.26;100.00;147380.44;5032004;28;20033;-61
2022/12/09 01:49:30;;;;;;;73.63;19.20;;;;;;;-0.22;100.00;147390.72;5032374;28;20064;-61
2022/12/09 01:52:08;;;;;;;78.83;19.90;;;;;;;-0.17;100.00;147403.53;5031691;28;20159;-61
2022/12/09 01:54:34;;;;;;;81.10;21.40;;;;;;;-0.16;100.00;147404.81;5029181;28;20068;-61
2022/12/09 01:57:00;;;;;;;77.83;21.40;;;;;;;-0.09;100.00;147424.09;5031290;28;20052;-62
2022/12/09 01:59:27;;;;;;;79.33;21.03;;;;;;;-0.06;100.00;147431.75;5032058;28;20052;-61
2022/12/09 02:01:57;;;;;;;76.40;19.77;;;;;;;-0.05;100.00;147433.03;5028000;28;20017;-62
2022/12/09 02:04:24;;;;;;;77.23;22.20;;;;;;;-0.07;100.00;147427.94;5028928;28;20056;-61
2022/12/09 02:06:50;;;;;;;80.00;21.77;;;;;;;-0.09;100.00;147424.09;5031082;28;20461;-62
2022/12/09 02:09:16;;;;;;;65.17;20.73;;;;;;;-0.10;100.00;147421.53;5028965;28;20048;-61
2022/12/09 02:11:56;;;;;;;69.40;19.57;;;;;;;-0.07;100.00;147429.19;5030270;28;20087;-62
2022/12/09 02:14:49;;;;;;;69.03;20.30;;;;;;;-0.06;100.00;147431.75;5030959;28;20037;-62
2022/12/09 02:17:39;;;;;;;70.33;19.97;;;;;;;-0.01;100.00;147444.56;5029116;28;20388;-61
2022/12/09 02:20:14;;;;;;;66.47;19.70;;;;;;;0.03;100.00;147452.31;5032728;28;20098;-61
2022/12/09 02:22:46;;;;;;;61.90;19.73;;;;;;;0.04;100.00;147454.88;5030358;28;20053;-60
2022/12/09 02:25:29;;;;;;;67.73;20.17;;;;;;;0.06;100.00;147460.00;5028991;28;20036;-61
2022/12/09 02:28:31;;;;;;;65.40;19.23;;;;;;;0.09;100.00;147467.69;5031284;28;20071;-61
2022/12/09 02:31:18;;;;;;;61.13;18.93;;;;;;;0.09;100.00;147467.69;5030421;28;20029;-62
2022/12/09 02:34:20;;;;;;;63.47;19.97;;;;;;;0.10;100.00;147471.53;5029636;28;20080;-60
2022/12/09 02:36:55;;;;;;;63.87;19.77;;;;;;;0.09;100.00;147468.97;5031001;28;20057;-62
2022/12/09 02:39:28;;;;;;;63.47;19.27;;;;;;;0.11;100.00;147474.09;5031796;28;20052;-61
2022/12/09 02:41:57;;;;;;;59.53;20.00;;;;;;;0.14;100.00;147480.53;5033716;28;20030;-61
2022/12/09 02:44:24;;;;;;;59.83;19.50;;;;;;;0.16;100.00;147485.66;5033145;28;20397;-60
2022/12/09 02:46:51;;;;;;;59.63;19.60;;;;;;;0.17;100.00;147489.50;5030915;28;20061;-61
2022/12/09 02:49:20;;;;;;;53.07;17.13;;;;;;;0.20;100.00;147495.91;5030831;28;20434;-62
2022/12/09 02:51:48;;;;;;;58.60;19.33;;;;;;;0.19;100.00;147493.34;5031922;28;20838;-60
2022/12/09 02:54:17;;;;;;;65.13;21.40;;;;;;;0.16;100.00;147485.66;5029952;28;20099;-60
2022/12/09 02:56:55;;;;;;;53.43;18.87;;;;;;;0.11;100.00;147472.81;5029804;28;20416;-61
2022/12/09 02:59:21;;;;;;;58.37;21.17;;;;;;;0.13;100.00;147477.97;5030003;28;20037;-61
2022/12/09 03:02:05;;;;;;;61.20;20.90;;;;;;;0.15;100.00;147484.38;5030702;28;20052;-61
2022/12/09 03:04:30;;;;;;;66.37;20.27;;;;;;;0.18;100.00;147490.78;5029140;28;20044;-61
2022/12/09 03:07:18;;;;;;;57.63;19.07;;;;;;;0.14;100.00;147480.53;5034346;28;20489;-60
2022/12/09 03:09:51;;;;;;;95.43;22.17;;;;;;;0.14;100.00;147480.53;5031235;28;20091;-60
2022/12/09 03:12:19;;;;;;;67.60;25.20;;;;;;;0.14;100.00;147480.53;5030452;28;20100;-61
2022/12/09 03:14:51;;;;;;;61.27;20.50;;;;;;;-0.03;100.00;147439.44;5029224;28;20033;-61
2022/12/09 03:17:28;;;;;;;61.70;21.37;;;;;;;-0.04;100.00;147436.91;5031303;28;20056;-61
2022/12/09 03:19:59;;;;;;;60.57;21.00;;;;;;;-0.07;100.00;147429.19;5032650;28;20033;-60
2022/12/09 03:22:28;;;;;;;58.80;20.92;;;;;;;-0.10;100.00;147420.25;5029746;28;20029;-61
2022/12/09 03:24:56;;;;;;;56.50;20.47;;;;;;;-0.13;100.00;147413.78;5033248;28;20145;-61
2022/12/09 03:27:27;;;;;;;62.40;20.60;;;;;;;-0.06;100.00;147430.47;5031099;28;20539;-61
2022/12/09 03:29:54;;;;;;;68.95;22.38;;;;;;;-0.05;100.00;147433.03;5031109;28;20095;-60
2022/12/09 03:32:24;;;;;;;65.53;21.77;;;;;;;-0.05;100.00;147434.31;5031386;28;20556;-62
2022/12/09 03:34:53;;;;;;;64.83;21.90;;;;;;;-0.07;100.00;147429.19;5028673;28;20059;-63
2022/12/09 03:37:20;;;;;;;60.37;21.93;;;;;;;-0.08;100.00;147425.38;5027331;28;20018;-63
2022/12/09 03:39:47;;;;;;;61.03;22.00;;;;;;;-0.07;100.00;147427.94;5029649;28;20112;-63
2022/12/09 03:42:23;;;;;;;64.07;22.40;;;;;;;-0.07;100.00;147429.19;5030784;28;20680;-63
2022/12/09 03:45:04;;;;;;;72.20;21.77;;;;;;;-0.05;100.00;147434.31;5031840;28;20027;-63
2022/12/09 03:47:30;;;;;;;69.33;22.73;;;;;;;-0.01;100.00;147444.56;5030404;28;20087;-63
2022/12/09 03:49:55;;;;;;;68.67;23.67;;;;;;;0.00;100.00;147445.91;5031280;28;20268;-63
2022/12/09 03:52:40;;;;;;;61.33;21.10;;;;;;;0.02;100.00;147449.75;5028657;28;20047;-63
2022/12/09 03:55:29;;;;;;;66.27;21.83;;;;;;;0.03;100.00;147452.31;5025610;28;20033;-63
2022/12/09 03:57:58;;;;;;;66.30;22.10;;;;;;;-0.01;100.00;147444.56;5033502;28;20469;-63
2022/12/09 04:00:24;;;;;;;62.47;22.43;;;;;;;0.03;100.00;147453.59;5030703;28;20065;-63
2022/12/09 04:02:49;;;;;;;67.60;21.73;;;;;;;0.02;100.00;147449.75;5029405;28;20022;-63
2022/12/09 04:05:15;;;;;;;66.17;23.60;;;;;;;0.08;100.00;147466.41;5027323;28;20029;-63
2022/12/09 04:07:40;;;;;;;73.63;23.43;;;;;;;0.08;100.00;147466.41;5027929;28;20496;-63
2022/12/09 04:10:06;;;;;;;67.17;22.93;;;;;;;0.10;100.00;147470.25;5026442;28;20025;-63
2022/12/09 04:12:31;;;;;;;67.73;23.97;;;;;;;0.09;100.00;147467.69;5027340;28;20013;-63
2022/12/09 04:14:57;;;;;;;68.47;23.80;;;;;;;0.12;100.00;147475.38;5026188;28;20091;-63
2022/12/09 04:17:22;;;;;;;69.67;23.40;;;;;;;0.09;100.00;147468.97;5025679;28;20029;-63
2022/12/09 04:19:48;;;;;;;69.57;22.03;;;;;;;0.07;100.00;147463.84;5032369;28;20108;-63
2022/12/09 04:22:13;;;;;;;66.07;22.67;;;;;;;0.06;100.00;147461.28;5030299;28;20087;-63
2022/12/09 04:24:39;;;;;;;75.27;23.43;;;;;;;0.03;100.00;147452.31;5029574;28;20053;-63
2022/12/09 04:27:04;;;;;;;65.90;23.80;;;;;;;0.01;100.00;147447.19;5030669;28;20030;-63
2022/12/09 04:29:30;;;;;;;75.67;24.37;;;;;;;-0.01;100.00;147444.56;5028297;28;20080;-63
2022/12/09 04:31:55;;;;;;;77.67;25.13;;;;;;;0.00;100.00;147445.91;5029819;28;20063;-63
2022/12/09 04:34:20;;;;;;;74.43;24.73;;;;;;;-0.02;100.00;147440.72;5029516;28;20362;-63
2022/12/09 04:36:47;;;;;;;72.67;23.73;;;;;;;-0.06;100.00;147430.47;5029728;28;20036;-63
2022/12/09 04:39:12;;;;;;;73.53;23.43;;;;;;;-0.10;100.00;147420.25;5029908;28;20025;-63
2022/12/09 04:41:38;;;;;;;69.83;23.10;;;;;;;-0.14;100.00;147411.22;5029246;28;20488;-63
2022/12/09 04:44:03;;;;;;;77.43;23.40;;;;;;;-0.16;100.00;147406.09;5030541;28;20078;-63
2022/12/09 04:46:29;;;;;;;73.83;24.80;;;;;;;-0.17;100.00;147403.53;5028693;28;20032;-63
2022/12/09 04:48:54;;;;;;;72.57;24.20;;;;;;;-0.19;100.00;147398.41;5030252;28;20469;-63
2022/12/09 04:51:19;;;;;;;81.07;24.77;;;;;;;-0.16;100.00;147406.09;5029616;28;20504;-63
2022/12/09 04:53:45;;;;;;;82.50;24.50;;;;;;;-0.19;100.00;147397.13;5029642;28;20033;-63
2022/12/09 04:56:17;;;;;;;79.93;25.53;;;;;;;-0.26;100.00;147380.44;5027803;28;20112;-63
2022/12/09 04:58:43;;;;;;;72.57;23.43;;;;;;;-0.25;100.00;147383.00;5030218;28;20025;-63
2022/12/09 05:01:13;;;;;;;84.53;25.10;;;;;;;-0.22;100.00;147390.72;5029872;28;20024;-63
2022/12/09 05:03:39;;;;;;;90.47;28.00;;;;;;;-0.20;100.00;147395.84;5029280;28;20025;-63
2022/12/09 05:06:06;;;;;;;90.00;26.97;;;;;;;-0.15;100.00;147408.66;5029216;28;20452;-63
2022/12/09 05:08:31;;;;;;;106.77;28.63;;;;;;;-0.12;100.00;147415.06;5028644;28;20072;-63
2022/12/09 05:10:57;;;;;;;105.40;28.90;;;;;;;-0.08;100.00;147426.66;5027993;28;20416;-64
2022/12/09 05:13:25;;;;;;;94.37;27.83;;;;;;;-0.05;100.00;147434.31;5027878;28;20025;-63
2022/12/09 05:15:51;;;;;;;97.07;28.43;;;;;;;-0.05;100.00;147434.31;5030248;28;20036;-63
2022/12/09 05:18:17;;;;;;;104.47;30.33;;;;;;;-0.08;100.00;147426.66;5030179;28;20021;-63
2022/12/09 05:20:42;;;;;;;115.60;33.23;;;;;;;-0.08;100.00;147426.66;5029368;28;20032;-63
2022/12/09 05:23:07;;;;;;;119.93;35.37;;;;;;;-0.07;100.00;147429.19;5029031;28;20469;-63
2022/12/09 05:25:33;;;;;;;113.33;32.40;;;;;;;-0.09;100.00;147422.81;5029334;28;20025;-63
2022/12/09 05:27:59;;;;;;;111.53;33.00;;;;;;;-0.12;100.00;147416.41;5029529;28;20029;-63
2022/12/09 05:30:24;;;;;;;128.63;36.10;;;;;;;-0.14;100.00;147411.22;5030006;28;20144;-63
2022/12/09 05:32:49;;;;;;;123.00;34.77;;;;;;;-0.24;100.00;147384.28;5029891;28;20024;-63
2022/12/09 05:35:15;;;;;;;132.90;37.10;;;;;;;-0.37;100.00;147352.22;5032573;28;20029;-63
2022/12/09 05:37:40;;;;;;;117.97;29.30;;;;;;;-0.34;100.00;147359.94;5029414;28;20049;-63
2022/12/09 05:40:06;;;;;;;152.23;30.43;;;;;;;-0.19;100.00;147398.41;5029368;28;20041;-63
2022/12/09 05:42:32;;;;;;;209.30;31.87;;;;;;;-0.14;100.00;147411.22;5033441;28;20117;-63
2022/12/09 05:44:57;;;;;;;514.33;40.50;;;;;;;0.03;100.00;147452.31;5033214;28;20532;-63
2022/12/09 05:47:22;;;;;;;753.47;51.03;;;;;;;0.04;100.00;147454.88;5033886;28;20025;-63
2022/12/09 05:49:48;;;;;;;786.43;53.03;;;;;;;0.10;100.00;147470.25;5032820;28;20039;-63
2022/12/09 05:52:13;;;;;;;760.87;48.87;;;;;;;0.13;100.00;147477.97;5032758;28;20100;-65
2022/12/09 05:54:39;;;;;;;769.67;47.87;;;;;;;0.11;100.00;147472.81;5033271;28;20021;-63
2022/12/09 05:57:05;;;;;;;644.80;44.50;;;;;;;0.10;100.00;147471.53;5030848;28;20080;-64
2022/12/09 05:59:30;;;;;;;821.20;50.87;;;;;;;0.07;100.00;147462.56;5032717;28;20021;-65
2022/12/09 06:01:56;;;;;;;741.20;45.10;;;;;;;0.06;100.00;147460.00;5031918;28;20033;-64
2022/12/09 06:04:21;;;;;;;843.37;54.03;;;;;;;0.03;100.00;147452.31;5030112;28;20025;-65
2022/12/09 06:06:47;;;;;;;963.00;57.63;;;;;;;0.04;100.00;147456.16;5032462;28;20824;-65
2022/12/09 06:09:12;;;;;;;825.47;49.67;;;;;;;0.09;100.00;147468.97;5029666;28;20032;-65
2022/12/09 06:11:38;;;;;;;856.33;55.77;;;;;;;0.10;100.00;147470.25;5031168;28;20081;-65
2022/12/09 06:14:06;;;;;;;785.57;51.23;;;;;;;0.08;100.00;147466.41;5035405;28;20488;-65
2022/12/09 06:16:34;;;;;;;595.27;42.77;;;;;;;0.07;100.00;147462.56;5031566;28;20024;-65
2022/12/09 06:19:00;;;;;;;436.43;34.13;;;;;;;0.09;100.00;147467.69;5031571;28;20137;-64
2022/12/09 06:21:25;;;;;;;807.43;48.90;;;;;;;-0.01;100.00;147444.56;5031746;28;20037;-65
2022/12/09 06:23:51;;;;;;;616.57;42.33;;;;;;;-0.10;100.00;147421.53;5031546;28;20022;-64
2022/12/09 06:26:26;;;;;;;694.73;45.07;;;;;;;-0.07;100.00;147427.94;5033235;28;20477;-64
2022/12/09 06:28:52;;;;;;;750.57;49.30;;;;;;;-0.04;100.00;147436.91;5031720;28;20025;-64
2022/12/09 06:31:18;;;;;;;547.83;39.93;;;;;;;-0.05;100.00;147434.31;5032592;28;20044;-65
2022/12/09 06:33:44;;;;;;;666.13;45.27;;;;;;;-0.02;100.00;147442.00;5031704;28;21506;-65
2022/12/09 06:36:10;;;;;;;588.57;38.87;;;;;;;-0.04;100.00;147436.91;5030941;28;20029;-64
2022/12/09 06:38:36;;;;;;;728.83;44.40;;;;;;;-0.10;100.00;147421.53;5032165;28;20049;-65
2022/12/09 06:41:10;;;;;;;544.17;36.20;;;;;;;-0.24;100.00;147385.59;5031349;28;20533;-64
2022/12/09 06:43:36;;;;;;;537.40;35.57;;;;;;;-0.23;100.00;147386.88;5034705;28;20440;-64
2022/12/09 06:46:02;;;;;;;611.60;37.80;;;;;;;-0.20;100.00;147395.84;5031371;28;20075;-64
2022/12/09 06:48:28;;;;;;;613.60;40.07;;;;;;;-0.11;100.00;147418.97;5030724;28;20469;-65
2022/12/09 06:50:54;;;;;;;805.10;45.80;;;;;;;-0.01;100.00;147443.28;5030846;28;20112;-65
2022/12/09 06:53:20;;;;;;;728.67;42.53;;;;;;;0.07;100.00;147462.56;5033359;28;20029;-64
2022/12/09 06:55:45;;;;;;;581.83;38.30;;;;;;;0.10;100.00;147470.25;5031574;28;20032;-64
2022/12/09 06:58:10;;;;;;;603.80;37.37;;;;;;;0.12;100.00;147475.38;5034365;28;20100;-65
2022/12/09 07:00:36;;;;;;;759.83;44.53;;;;;;;0.18;100.00;147490.78;5032128;28;20488;-64
2022/12/09 07:03:01;;;;;;;880.53;49.50;;;;;;;0.19;100.00;147494.63;5031397;28;20026;-64
2022/12/09 07:05:27;;;;;;;730.73;42.20;;;;;;;0.22;100.00;147502.31;5031416;28;20033;-62
2022/12/09 07:07:52;;;;;;;666.27;39.83;;;;;;;0.25;100.00;147508.78;5029541;28;20025;-62
2022/12/09 07:10:19;;;;;;;899.80;48.27;;;;;;;0.23;100.00;147503.59;5031435;28;20515;-62
2022/12/09 07:12:44;;;;;;;1067.77;52.10;;;;;;;0.30;100.00;147521.59;5033580;28;20055;-62
2022/12/09 07:15:10;;;;;;;823.17;48.43;;;;;;;0.31;100.00;147524.16;5029407;28;20072;-62
2022/12/09 07:17:36;;;;;;;813.80;45.63;;;;;;;0.28;100.00;147516.47;5034676;28;20024;-64
2022/12/09 07:20:02;;;;;;;659.30;45.17;;;;;;;0.33;100.00;147529.28;5027440;28;20027;-65
2022/12/09 07:22:27;;;;;;;803.60;43.03;;;;;;;0.39;100.00;147544.69;5031357;28;20029;-64
2022/12/09 07:24:53;;;;;;;816.73;46.23;;;;;;;0.40;100.00;147547.25;5030984;28;20017;-64
2022/12/09 07:27:18;;;;;;;585.53;38.90;;;;;;;0.42;100.00;147552.38;5031158;28;20075;-64
2022/12/09 07:29:44;;;;;;;874.93;47.60;;;;;;;0.43;100.00;147553.69;5031383;28;20561;-64
2022/12/09 07:32:10;;;;;;;803.23;45.30;;;;;;;0.41;100.00;147549.81;5031200;28;20095;-64
2022/12/09 07:34:38;;;;;;;845.87;50.57;;;;;;;0.48;100.00;147567.78;5031144;28;20107;-65
2022/12/09 07:37:04;;;;;;;817.07;47.37;;;;;;;0.55;100.00;147584.47;5030920;28;20017;-64
2022/12/09 07:39:29;;;;;;;973.27;52.67;;;;;;;0.56;100.00;147588.31;5035149;28;20033;-64
2022/12/09 07:41:56;;;;;;;926.00;52.00;;;;;;;0.59;100.00;147594.72;5030003;28;20034;-65
2022/12/09 07:44:23;;;;;;;948.77;52.33;;;;;;;0.62;100.00;147601.19;5031612;28;20029;-64
2022/12/09 07:46:49;;;;;;;871.00;50.53;;;;;;;0.63;100.00;147603.75;5031295;28;20048;-64
2022/12/09 07:49:15;;;;;;;597.63;43.73;;;;;;;0.65;100.00;147608.88;5031206;28;20021;-64
2022/12/09 07:51:41;;;;;;;564.97;42.33;;;;;;;0.64;100.00;147606.31;5030023;28;20014;-64
2022/12/09 07:54:14;;;;;;;563.90;43.57;;;;;;;0.63;100.00;147605.03;5025513;28;20046;-64
2022/12/09 07:56:40;;;;;;;535.87;44.53;;;;;;;0.66;100.00;147611.44;5028361;28;20033;-64
2022/12/09 07:59:07;;;;;;;476.33;42.37;;;;;;;0.70;100.00;147621.69;5030309;28;20040;-64
2022/12/09 08:01:33;;;;;;;537.33;45.57;;;;;;;0.73;100.00;147629.44;5030516;28;20109;-64
2022/12/09 08:03:59;;;;;;;491.40;42.83;;;;;;;0.75;100.00;147635.84;5030935;28;20113;-64
2022/12/09 08:06:26;;;;;;;632.93;49.07;;;;;;;0.74;100.00;147632.00;5030346;28;20025;-64
2022/12/09 08:08:52;;;;;;;666.00;57.13;;;;;;;0.77;100.00;147640.97;5031378;28;20029;-64
2022/12/09 08:11:23;;;;;;;650.43;50.13;;;;;;;0.76;100.00;147637.13;5029897;28;20086;-64
2022/12/09 08:13:49;;;;;;;540.42;44.97;;;;;;;0.80;100.00;147647.38;5030628;28;20480;-64
2022/12/09 08:16:17;;;;;;;454.87;45.27;;;;;;;0.78;100.00;147642.25;5030670;28;20030;-64
2022/12/09 08:18:44;;;;;;;382.30;43.53;;;;;;;0.83;100.00;147655.06;5030520;28;20117;-64
2022/12/09 08:21:15;;;;;;;390.90;42.23;;;;;;;0.87;100.00;147665.38;5029758;28;20067;-64
2022/12/09 08:23:41;;;;;;;293.77;36.20;;;;;;;0.90;100.00;147673.06;5030472;28;20021;-64
2022/12/09 08:26:08;;;;;;;301.77;38.17;;;;;;;0.84;100.00;147658.91;5028867;28;20083;-64
2022/12/09 08:28:33;;;;;;;360.87;42.67;;;;;;;0.75;100.00;147635.84;5032616;28;20044;-64
2022/12/09 08:31:06;;;;;;;320.50;40.00;;;;;;;0.73;100.00;147629.44;5030627;28;20013;-64
2022/12/09 08:33:33;;;;;;;252.93;31.50;;;;;;;0.70;100.00;147621.69;5030202;28;20165;-64
2022/12/09 08:35:59;;;;;;;310.93;37.37;;;;;;;0.67;100.00;147614.00;5030547;28;20022;-64
2022/12/09 08:38:24;;;;;;;362.77;41.87;;;;;;;0.62;100.00;147601.19;5031845;28;20025;-64
2022/12/09 08:40:49;;;;;;;326.83;37.27;;;;;;;0.64;100.00;147606.31;5031279;28;20045;-64
2022/12/09 08:43:15;;;;;;;276.50;33.17;;;;;;;0.66;100.00;147611.44;5030133;28;20040;-64
2022/12/09 08:45:40;;;;;;;434.53;43.37;;;;;;;0.65;100.00;147608.88;5030178;28;20028;-64
2022/12/09 08:48:06;;;;;;;419.10;35.53;;;;;;;0.62;100.00;147602.47;5031640;28;20033;-64
2022/12/09 08:50:32;;;;;;;510.40;40.53;;;;;;;0.65;100.00;147608.88;5030082;28;20096;-64
2022/12/09 08:52:58;;;;;;;580.37;42.57;;;;;;;0.79;100.00;147644.81;5031097;28;20104;-64
2022/12/09 08:55:24;;;;;;;795.90;51.17;;;;;;;0.87;100.00;147666.66;5033952;28;20123;-64
2022/12/09 08:57:49;;;;;;;615.67;44.60;;;;;;;0.97;100.00;147689.75;5027811;28;20021;-64
2022/12/09 09:00:15;;;;;;;652.93;43.07;;;;;;;0.95;100.00;147685.88;5032465;28;20021;-64
2022/12/09 09:02:40;;;;;;;798.47;44.27;;;;;;;0.95;100.00;147684.59;5025371;28;20101;-64
2022/12/09 09:05:06;;;;;;;607.57;41.13;;;;;;;0.94;100.00;147683.31;5031214;28;20485;-64
2022/12/09 09:07:31;;;;;;;447.30;33.10;;;;;;;0.99;100.00;147694.91;5029929;28;20026;-65
2022/12/09 09:09:58;;;;;;;435.50;33.93;;;;;;;0.91;100.00;147675.63;5030093;28;20104;-64
2022/12/09 09:12:24;;;;;;;487.07;36.40;;;;;;;0.85;100.00;147661.53;5030089;28;20025;-64
2022/12/09 09:14:51;;;;;;;580.37;41.30;;;;;;;0.79;100.00;147646.09;5028393;28;20018;-64
2022/12/09 09:17:17;;;;;;;371.43;32.50;;;;;;;0.86;100.00;147662.81;5033269;28;20392;-64
2022/12/09 09:19:42;;;;;;;399.97;32.00;;;;;;;0.94;100.00;147683.31;5034302;28;20112;-64
2022/12/09 09:22:07;;;;;;;693.00;46.70;;;;;;;1.18;100.00;147744.97;5032410;28;20052;-64
2022/12/09 09:24:33;;;;;;;203.57;39.30;;;;;;;1.26;100.00;147762.97;5033926;28;20030;-64
2022/12/09 09:26:58;;;;;;;210.33;39.40;;;;;;;1.10;100.00;147724.44;5031997;28;20065;-64
2022/12/09 09:29:24;;;;;;;229.70;39.53;;;;;;;1.28;100.00;147768.09;5034593;28;20024;-64
2022/12/09 09:31:52;;;;;;;184.53;36.50;;;;;;;1.18;100.00;147743.69;5033457;28;20013;-64
2022/12/09 09:34:18;;;;;;;189.10;34.77;;;;;;;1.29;100.00;147770.66;5032296;28;20076;-64
2022/12/09 09:36:44;;;;;;;176.73;35.27;;;;;;;1.15;100.00;147736.00;5033995;28;20416;-64
2022/12/09 09:39:09;;;;;;;201.57;35.63;;;;;;;1.04;100.00;147707.72;5035571;28;20450;-64
2022/12/09 09:41:53;;;;;;;269.73;36.43;;;;;;;1.14;100.00;147734.72;5032756;28;20033;-64
2022/12/09 09:44:41;;;;;;;241.37;37.20;;;;;;;1.09;100.00;147720.56;5032617;28;20380;-64
2022/12/09 09:47:42;;;;;;;385.50;37.23;;;;;;;1.20;100.00;147747.53;5032721;28;20389;-64
2022/12/09 09:50:22;;;;;;;453.03;44.07;;;;;;;1.23;100.00;147755.28;5024496;28;20048;-64
2022/12/09 09:52:51;;;;;;;406.00;41.60;;;;;;;1.31;100.00;147777.06;5031356;28;20033;-64
2022/12/09 09:55:18;;;;;;;471.37;41.67;;;;;;;0.95;100.00;147685.88;5032342;28;20025;-64
2022/12/09 09:57:52;;;;;;;479.30;44.17;;;;;;;1.22;100.00;147752.72;5032466;28;20575;-64
2022/12/09 10:00:26;;;;;;;291.23;36.00;;;;;;;1.30;100.00;147773.22;5032942;28;20025;-64
2022/12/09 10:03:29;;;;;;;360.77;40.27;;;;;;;1.28;100.00;147769.38;5034738;28;20017;-64
2022/12/09 10:06:00;;;;;;;278.87;37.73;;;;;;;1.28;100.00;147768.09;4996453;28;20045;-64
2022/12/09 10:08:45;;;;;;;326.63;36.20;;;;;;;1.26;100.00;147762.97;5032584;28;20052;-64
2022/12/09 10:11:22;;;;;;;210.97;35.90;;;;;;;1.16;100.00;147738.56;5031516;28;20469;-64
2022/12/09 10:14:10;;;;;;;184.80;33.27;;;;;;;1.01;100.00;147700.03;5034766;28;20491;-64
2022/12/09 10:17:10;;;;;;;189.80;35.03;;;;;;;1.08;100.00;147719.28;5031874;28;20107;-64
2022/12/09 10:19:44;;;;;;;163.43;34.10;;;;;;;1.09;100.00;147720.56;5031826;28;20033;-62
2022/12/09 10:22:14;;;;;;;187.77;32.43;;;;;;;0.94;100.00;147683.31;5026909;28;20091;-62
2022/12/09 10:24:58;;;;;;;170.97;31.20;;;;;;;0.73;100.00;147630.72;5028955;28;20030;-62
2022/12/09 10:27:34;;;;;;;157.33;30.80;;;;;;;0.71;100.00;147624.25;5028155;28;20495;-62
2022/12/09 10:30:10;;;;;;;167.70;31.27;;;;;;;0.95;100.00;147684.59;5031074;28;20021;-63
2022/12/09 10:32:38;;;;;;;162.70;33.27;;;;;;;0.98;100.00;147693.63;5026791;28;20025;-62
2022/12/09 10:35:19;;;;;;;160.97;33.43;;;;;;;1.04;100.00;147709.00;5021269;28;20036;-62
2022/12/09 10:37:46;;;;;;;176.53;33.60;;;;;;;1.22;100.00;147752.72;5030520;28;20025;-62
2022/12/09 10:40:18;;;;;;;186.00;35.13;;;;;;;1.31;100.00;147775.78;5027868;28;20036;-62
2022/12/09 10:45:53;;;;;;;145.83;33.13;;;;;;;1.56;100.00;147838.75;5029531;28;20465;-62
2022/12/09 10:48:20;;;;;;;125.07;31.03;;;;;;;1.74;100.00;147886.31;5034345;28;20029;-62
2022/12/09 10:50:46;;;;;;;117.40;31.23;;;;;;;2.03;100.00;147958.25;5028026;28;20041;-62
2022/12/09 10:53:14;;;;;;;117.87;31.20;;;;;;;2.10;100.00;147975.00;5028111;28;20501;-62
2022/12/09 10:55:48;;;;;;;110.90;29.90;;;;;;;2.20;100.00;148002.00;5030236;28;20434;-63
2022/12/09 10:58:20;;;;;;;115.40;31.27;;;;;;;2.19;100.00;147999.44;5026529;28;20120;-62
2022/12/09 11:01:12;;;;;;;103.82;29.60;;;;;;;2.25;100.00;148014.84;5030243;28;20040;-62
2022/12/09 11:03:45;;;;;;;;;;;;;;;2.33;100.00;148035.44;5024555;28;20512;-62
2022/12/09 11:06:29;;;;;;;101.70;28.97;;;;;;;1.97;100.00;147942.88;5024885;28;19928;-63
2022/12/09 11:09:00;;;;;;;88.57;30.00;;;;;;;2.37;100.00;148043.13;5032296;28;20033;-65
2022/12/09 11:11:42;;;;;;;99.85;30.17;;;;;;;2.53;100.00;148084.25;5042932;28;20439;-63
2022/12/09 11:14:33;;;;;;;88.60;27.23;;;;;;;2.24;100.00;148012.28;5032154;28;20026;-64